Time;durP1;ratioP1;P1;durP2;ratioP2;P2;SDS_P1;SDS_P2;PMS_P1;PMS_P2;Temp;Humidity;BMP_temperature;BMP_pressure;BME280_temperature;BME280_humidity;BME280_pressure;Samples;Min_cycle;Max_cycle;Signal;HPM_P1;HPM_P2
2022/01/21 00:00:58;;;;;;;3.90;1.23;;;4.20;99.90;;;;;;5035896;28;20201;-74
2022/01/21 00:03:24;;;;;;;2.53;1.10;;;4.30;99.90;;;;;;5053853;28;20713;-79
2022/01/21 00:05:50;;;;;;;5.87;1.40;;;4.10;99.90;;;;;;5019073;28;20185;-75
2022/01/21 00:08:16;;;;;;;6.07;1.27;;;4.20;99.90;;;;;;5052092;28;20671;-78
2022/01/21 00:10:42;;;;;;;2.77;1.03;;;4.20;99.90;;;;;;5014103;28;20200;-80
2022/01/21 00:13:17;;;;;;;4.43;1.33;;;4.30;99.90;;;;;;4998915;28;20193;-74
2022/01/21 00:15:43;;;;;;;7.23;1.23;;;4.40;99.90;;;;;;5018527;28;20189;-78
2022/01/21 00:18:10;;;;;;;3.53;1.20;;;4.30;99.90;;;;;;4999490;28;20174;-80
2022/01/21 00:31:41;;;;;;;4.37;1.43;;;4.40;99.90;;;;;;5050477;28;20173;-80
2022/01/21 00:34:07;;;;;;;3.93;1.47;;;4.50;99.90;;;;;;5049646;28;20636;-76
2022/01/21 00:36:33;;;;;;;4.97;1.53;;;4.60;99.90;;;;;;5033787;28;20177;-76
2022/01/21 00:38:59;;;;;;;3.60;1.10;;;4.30;99.90;;;;;;5033232;28;20397;-75
2022/01/21 00:41:30;;;;;;;4.97;1.20;;;4.40;99.90;;;;;;5021792;28;20201;-75
2022/01/21 00:43:57;;;;;;;4.20;1.17;;;4.40;99.90;;;;;;5018671;28;20180;-81
2022/01/21 00:46:44;;;;;;;2.73;1.17;;;4.40;99.90;;;;;;5010216;28;20189;-76
2022/01/21 00:49:10;;;;;;;4.33;1.27;;;4.50;99.90;;;;;;5033062;28;20177;-77
2022/01/21 00:51:40;;;;;;;4.67;1.20;;;4.20;99.90;;;;;;5030785;28;20209;-77
2022/01/21 00:54:19;;;;;;;5.17;0.97;;;4.40;99.90;;;;;;5026818;28;20238;-74
2022/01/21 00:56:51;;;;;;;5.87;1.60;;;4.30;99.90;;;;;;4996694;28;20182;-78
2022/01/21 00:59:19;;;;;;;5.90;1.60;;;4.40;99.90;;;;;;5017548;28;20210;-75
2022/01/21 01:01:45;;;;;;;2.50;1.20;;;4.40;99.90;;;;;;5024525;28;20245;-75
2022/01/21 01:04:11;;;;;;;2.27;1.10;;;4.40;99.90;;;;;;5048459;28;20656;-75
2022/01/21 01:06:37;;;;;;;3.70;1.20;;;4.20;99.90;;;;;;5013850;28;20649;-79
2022/01/21 01:09:06;;;;;;;3.53;1.50;;;4.40;99.90;;;;;;5029290;28;20312;-75
2022/01/21 01:20:00;;;;;;;1.70;1.07;;;4.80;99.90;;;;;;5035647;28;20169;-74
2022/01/21 01:22:39;;;;;;;4.07;1.60;;;4.70;99.90;;;;;;5032901;28;20204;-77
2022/01/21 01:27:51;;;;;;;5.77;0.90;;;4.70;99.90;;;;;;5031590;28;20177;-74
2022/01/21 01:30:20;;;;;;;3.53;1.20;;;4.70;99.90;;;;;;5029773;28;20177;-74
2022/01/21 01:32:48;;;;;;;2.73;1.13;;;4.50;99.90;;;;;;5038464;28;20621;-74
2022/01/21 01:35:18;;;;;;;2.93;1.30;;;4.50;99.90;;;;;;5049763;28;20169;-74
2022/01/21 01:40:26;;;;;;;2.97;1.30;;;4.70;99.90;;;;;;5051287;28;20635;-78
2022/01/21 01:51:20;;;;;;;3.00;1.33;;;4.60;99.90;;;;;;5047046;28;20169;-78
2022/01/21 01:53:53;;;;;;;7.87;1.53;;;4.50;99.90;;;;;;5027014;28;20205;-77
2022/01/21 01:56:27;;;;;;;5.03;1.43;;;4.50;99.90;;;;;;5027133;28;20185;-74
2022/01/21 01:58:53;;;;;;;5.63;1.60;;;4.60;99.90;;;;;;5032710;28;20226;-80
2022/01/21 02:01:19;;;;;;;2.23;1.03;;;4.50;99.90;;;;;;5016422;28;20229;-79
2022/01/21 02:03:45;;;;;;;6.73;1.47;;;4.60;99.90;;;;;;5028109;28;20178;-73
2022/01/21 02:06:11;;;;;;;5.10;1.50;;;4.60;99.90;;;;;;5029357;28;20266;-77
2022/01/21 02:08:37;;;;;;;4.70;1.30;;;4.60;99.90;;;;;;5013166;28;20590;-78
2022/01/21 02:11:03;;;;;;;4.07;1.23;;;4.70;99.90;;;;;;5036887;28;20177;-74
2022/01/21 02:13:33;;;;;;;3.77;1.27;;;4.60;99.90;;;;;;5049206;28;20206;-79
2022/01/21 02:16:08;;;;;;;4.40;1.17;;;4.60;99.90;;;;;;5033503;28;20208;-74
2022/01/21 02:21:38;;;;;;;6.30;1.43;;;4.60;99.90;;;;;;5041598;28;20201;-76
2022/01/21 02:24:31;;;;;;;5.60;1.63;;;4.60;99.90;;;;;;5021011;28;20234;-79
2022/01/21 02:26:59;;;;;;;8.30;1.37;;;4.60;99.90;;;;;;5068902;28;20175;-79
2022/01/21 02:29:38;;;;;;;5.33;1.43;;;4.50;99.90;;;;;;5015696;28;20715;-75
2022/01/21 02:32:04;;;;;;;7.30;1.33;;;4.30;99.90;;;;;;5015326;28;20169;-75
2022/01/21 02:34:31;;;;;;;4.87;1.60;;;4.50;99.90;;;;;;5013110;28;20182;-78
2022/01/21 02:36:57;;;;;;;2.97;1.40;;;4.50;99.90;;;;;;4997690;28;20178;-79
2022/01/21 02:39:23;;;;;;;4.13;1.33;;;4.40;99.90;;;;;;5031131;28;20490;-75
2022/01/21 02:41:48;;;;;;;5.37;1.10;;;4.20;99.90;;;;;;4996504;28;20288;-75
2022/01/21 02:44:17;;;;;;;5.47;1.43;;;4.40;99.90;;;;;;5031562;28;20183;-75
2022/01/21 02:46:45;;;;;;;7.30;1.30;;;4.50;99.90;;;;;;5042048;28;20178;-78
2022/01/21 02:49:12;;;;;;;7.43;1.77;;;4.40;99.90;;;;;;5039466;28;20173;-74
2022/01/21 02:51:38;;;;;;;8.83;1.87;;;4.60;99.90;;;;;;5025360;28;20446;-78
2022/01/21 02:54:04;;;;;;;4.37;1.20;;;4.60;99.90;;;;;;5013552;28;20696;-78
2022/01/21 02:56:35;;;;;;;5.33;1.20;;;4.60;99.90;;;;;;5031154;28;20189;-79
2022/01/21 02:59:02;;;;;;;2.87;1.60;;;4.50;99.90;;;;;;5030872;28;20194;-74
2022/01/21 03:01:32;;;;;;;2.37;1.27;;;4.50;99.90;;;;;;4996518;28;20208;-74
2022/01/21 03:03:58;;;;;;;6.27;1.40;;;4.40;99.90;;;;;;5013088;28;20174;-74
2022/01/21 03:06:24;;;;;;;2.97;1.40;;;4.40;99.90;;;;;;5012528;28;20186;-74
2022/01/21 03:08:52;;;;;;;9.13;1.40;;;4.30;99.90;;;;;;5029688;28;20174;-74
2022/01/21 03:11:20;;;;;;;5.10;1.60;;;4.30;99.90;;;;;;5029297;28;20247;-78
2022/01/21 03:13:46;;;;;;;2.00;1.00;;;4.20;99.90;;;;;;5034638;28;20203;-74
2022/01/21 03:16:12;;;;;;;11.00;1.33;;;4.20;99.90;;;;;;5048760;28;20286;-79
2022/01/21 03:18:39;;;;;;;4.10;1.33;;;4.40;99.90;;;;;;5048816;28;20670;-75
2022/01/21 03:21:09;;;;;;;2.73;1.10;;;4.60;99.90;;;;;;5048566;28;20197;-79
2022/01/21 03:23:38;;;;;;;3.43;1.60;;;4.50;99.90;;;;;;5048537;28;20184;-81
2022/01/21 03:26:04;;;;;;;3.93;1.53;;;4.30;99.90;;;;;;5028672;28;20174;-79
2022/01/21 03:28:30;;;;;;;4.93;1.17;;;4.40;99.90;;;;;;5012388;28;20534;-76
2022/01/21 03:30:56;;;;;;;5.13;1.47;;;4.50;99.90;;;;;;5013038;28;20185;-79
2022/01/21 03:33:26;;;;;;;7.93;1.27;;;4.30;99.90;;;;;;5016389;28;20197;-79
2022/01/21 03:35:53;;;;;;;5.57;1.30;;;4.40;99.90;;;;;;5032660;28;20180;-79
2022/01/21 03:38:24;;;;;;;5.30;1.50;;;4.40;99.90;;;;;;5033161;28;20174;-75
2022/01/21 03:40:50;;;;;;;5.10;1.40;;;4.50;99.90;;;;;;5033066;28;20172;-79
2022/01/21 03:43:16;;;;;;;5.80;1.30;;;4.50;99.90;;;;;;5033056;28;20251;-78
2022/01/21 03:45:42;;;;;;;3.43;1.37;;;4.40;99.90;;;;;;5032574;28;20633;-74
2022/01/21 03:48:07;;;;;;;7.03;1.43;;;4.30;99.90;;;;;;5032704;28;20169;-76
2022/01/21 03:50:33;;;;;;;5.00;1.07;;;4.40;99.90;;;;;;5016048;28;20709;-79
2022/01/21 03:53:00;;;;;;;3.80;1.30;;;4.30;99.90;;;;;;4999443;28;20265;-78
2022/01/21 03:55:27;;;;;;;6.63;1.50;;;4.40;99.90;;;;;;5033500;28;20182;-78
2022/01/21 03:57:53;;;;;;;3.33;1.13;;;4.50;99.90;;;;;;5015989;28;20193;-74
2022/01/21 04:00:22;;;;;;;3.10;1.40;;;4.30;99.90;;;;;;5032473;28;20177;-79
2022/01/21 04:02:49;;;;;;;6.93;1.63;;;4.30;99.90;;;;;;5016200;28;20206;-73
2022/01/21 04:05:15;;;;;;;5.67;1.70;;;4.40;99.90;;;;;;5032370;28;20223;-74
2022/01/21 04:07:41;;;;;;;3.13;1.60;;;4.40;99.90;;;;;;5016034;28;20574;-79
2022/01/21 04:10:07;;;;;;;7.93;1.70;;;4.40;99.90;;;;;;5015694;28;20170;-74
2022/01/21 04:12:33;;;;;;;6.43;1.43;;;4.30;99.90;;;;;;5015539;28;20548;-72
2022/01/21 04:14:59;;;;;;;3.43;1.37;;;4.50;99.90;;;;;;5032354;28;20224;-78
2022/01/21 04:17:28;;;;;;;4.00;1.43;;;4.30;99.90;;;;;;5016472;28;20201;-77
2022/01/21 04:19:54;;;;;;;4.17;1.27;;;4.30;99.90;;;;;;5028700;28;20633;-74
2022/01/21 04:22:21;;;;;;;4.70;1.30;;;4.20;99.90;;;;;;5022553;28;20228;-78
2022/01/21 04:24:49;;;;;;;5.13;1.63;;;4.40;99.90;;;;;;5057829;28;20173;-78
2022/01/21 04:27:16;;;;;;;6.57;2.10;;;4.30;99.90;;;;;;5054611;28;20184;-73
2022/01/21 04:29:42;;;;;;;3.63;1.73;;;4.40;99.90;;;;;;5071199;28;20502;-74
2022/01/21 04:32:08;;;;;;;7.07;1.53;;;4.40;99.90;;;;;;5071374;28;20178;-79
2022/01/21 04:34:34;;;;;;;5.17;1.70;;;4.50;99.90;;;;;;5054878;28;20350;-75
2022/01/21 04:37:01;;;;;;;6.83;1.63;;;4.50;99.90;;;;;;5071807;28;20180;-73
2022/01/21 04:39:33;;;;;;;4.60;1.83;;;4.50;99.90;;;;;;5073233;28;20183;-74
2022/01/21 04:47:34;;;;;;;6.07;1.73;;;4.30;99.90;;;;;;5073436;28;20593;-73
2022/01/21 04:50:00;;;;;;;5.77;1.40;;;4.20;99.90;;;;;;5055796;28;20534;-78
2022/01/21 04:52:26;;;;;;;4.13;1.40;;;4.10;99.90;;;;;;5071312;28;20215;-79
2022/01/21 04:54:52;;;;;;;8.83;2.00;;;4.20;99.90;;;;;;5070028;28;20200;-74
2022/01/21 04:57:19;;;;;;;2.77;1.50;;;4.10;99.90;;;;;;5052856;28;20267;-79
2022/01/21 04:59:46;;;;;;;3.23;1.50;;;4.00;99.90;;;;;;5034823;28;20207;-80
2022/01/21 05:02:12;;;;;;;4.47;1.50;;;4.10;99.90;;;;;;5051865;28;20225;-74
2022/01/21 05:04:38;;;;;;;4.80;1.80;;;4.20;99.90;;;;;;5053074;28;20169;-78
2022/01/21 05:07:07;;;;;;;2.53;1.53;;;4.20;99.90;;;;;;5035283;28;20169;-74
2022/01/21 05:09:35;;;;;;;8.20;1.83;;;4.30;99.90;;;;;;5051444;28;20173;-78
2022/01/21 05:12:07;;;;;;;5.77;1.63;;;4.40;99.90;;;;;;5051379;28;20193;-74
2022/01/21 05:14:46;;;;;;;5.23;1.73;;;4.30;99.90;;;;;;5052205;28;20187;-74
2022/01/21 05:17:14;;;;;;;9.57;1.80;;;4.50;99.90;;;;;;5050891;28;20176;-74
2022/01/21 05:19:40;;;;;;;5.27;1.77;;;4.30;99.90;;;;;;5034916;28;20225;-79
2022/01/21 05:22:06;;;;;;;6.50;1.90;;;4.30;99.90;;;;;;5034772;28;20249;-79
2022/01/21 05:24:32;;;;;;;8.03;2.00;;;4.10;99.90;;;;;;5050473;28;20165;-74
2022/01/21 05:27:00;;;;;;;6.67;1.70;;;4.00;99.90;;;;;;5034168;28;20677;-79
2022/01/21 05:29:29;;;;;;;5.60;1.70;;;4.00;99.90;;;;;;5050958;28;20173;-74
2022/01/21 05:31:55;;;;;;;3.73;1.83;;;4.20;99.90;;;;;;5050816;28;20184;-80
2022/01/21 05:34:21;;;;;;;3.80;1.90;;;4.20;99.90;;;;;;5034250;28;20206;-78
2022/01/21 05:36:46;;;;;;;9.07;2.00;;;4.20;99.90;;;;;;5050459;28;20177;-80
2022/01/21 05:39:14;;;;;;;5.47;1.70;;;4.30;99.90;;;;;;5034579;28;20176;-81
2022/01/21 05:41:44;;;;;;;3.40;1.60;;;4.20;99.90;;;;;;5034258;28;20583;-75
2022/01/21 05:44:19;;;;;;;6.63;1.90;;;4.30;99.90;;;;;;5050719;28;20177;-80
2022/01/21 05:46:57;;;;;;;4.53;1.67;;;4.10;99.90;;;;;;5018508;28;20207;-74
2022/01/21 05:49:25;;;;;;;3.57;1.60;;;4.00;99.90;;;;;;5036174;28;20168;-78
2022/01/21 05:52:02;;;;;;;6.27;2.23;;;4.10;99.90;;;;;;5050564;28;20188;-73
2022/01/21 05:54:28;;;;;;;8.93;1.97;;;4.00;99.90;;;;;;5035619;28;20192;-79
2022/01/21 05:56:55;;;;;;;6.60;1.83;;;4.20;99.90;;;;;;5015567;28;20182;-78
2022/01/21 05:59:21;;;;;;;3.03;1.43;;;4.10;99.90;;;;;;5014139;28;20300;-74
2022/01/21 06:01:47;;;;;;;5.97;1.80;;;4.30;99.90;;;;;;5045045;28;20232;-74
2022/01/21 06:04:13;;;;;;;8.03;1.90;;;4.30;99.90;;;;;;5050796;28;20200;-74
2022/01/21 06:06:39;;;;;;;3.93;1.73;;;4.20;99.90;;;;;;5029674;28;20181;-73
2022/01/21 06:09:06;;;;;;;5.73;1.70;;;4.30;99.90;;;;;;5035889;28;20182;-73
2022/01/21 06:11:33;;;;;;;4.57;1.93;;;4.20;99.90;;;;;;5032332;28;20255;-75
2022/01/21 06:14:00;;;;;;;6.80;2.33;;;4.50;99.90;;;;;;5032642;28;20197;-77
2022/01/21 06:16:27;;;;;;;4.43;1.90;;;4.20;99.90;;;;;;5001681;28;20255;-75
2022/01/21 06:18:53;;;;;;;4.27;2.03;;;4.10;99.90;;;;;;5030420;28;20532;-79
2022/01/21 06:21:19;;;;;;;2.30;1.70;;;4.10;99.90;;;;;;5027780;28;20212;-74
2022/01/21 06:23:44;;;;;;;4.40;1.97;;;4.20;99.90;;;;;;5028416;28;20190;-74
2022/01/21 06:26:10;;;;;;;8.13;2.10;;;4.30;99.90;;;;;;5037631;28;20185;-79
2022/01/21 06:28:36;;;;;;;5.97;2.00;;;4.40;99.90;;;;;;5032881;28;20232;-78
2022/01/21 06:31:02;;;;;;;3.53;1.57;;;4.30;99.90;;;;;;5043596;28;20193;-74
2022/01/21 06:33:28;;;;;;;5.97;2.10;;;4.40;99.90;;;;;;5030959;28;20193;-74
2022/01/21 06:35:54;;;;;;;7.23;1.83;;;4.10;99.90;;;;;;5004426;28;20190;-79
2022/01/21 06:38:21;;;;;;;8.87;1.90;;;4.20;99.90;;;;;;5041326;28;20547;-74
2022/01/21 06:40:48;;;;;;;6.93;1.80;;;4.30;99.90;;;;;;5031341;28;20264;-78
2022/01/21 06:43:14;;;;;;;3.00;1.30;;;4.30;99.90;;;;;;5026450;28;20720;-76
2022/01/21 06:45:40;;;;;;;6.70;2.57;;;4.30;99.90;;;;;;5044072;28;20711;-79
2022/01/21 06:48:07;;;;;;;6.73;2.40;;;4.30;99.90;;;;;;5039461;28;20190;-74
2022/01/21 06:50:38;;;;;;;3.07;1.43;;;4.30;99.90;;;;;;5029503;28;20276;-74
2022/01/21 06:53:04;;;;;;;4.63;2.00;;;4.30;99.90;;;;;;5030134;28;20193;-79
2022/01/21 06:55:30;;;;;;;5.53;2.13;;;4.30;99.90;;;;;;5020345;28;20180;-80
2022/01/21 06:57:57;;;;;;;5.10;2.17;;;4.30;99.90;;;;;;5050260;28;20199;-74
2022/01/21 07:00:23;;;;;;;3.57;1.60;;;4.20;99.90;;;;;;5032759;28;20181;-75
2022/01/21 07:02:52;;;;;;;10.30;2.27;;;4.30;99.90;;;;;;5032328;28;20208;-73
2022/01/21 07:05:20;;;;;;;6.63;2.47;;;4.20;99.90;;;;;;5032731;28;20204;-74
2022/01/21 07:07:46;;;;;;;7.43;1.77;;;4.20;99.90;;;;;;5033570;28;20276;-77
2022/01/21 07:10:14;;;;;;;7.03;2.77;;;4.40;99.90;;;;;;5033495;28;20268;-80
2022/01/21 07:12:41;;;;;;;9.53;3.00;;;4.30;99.90;;;;;;5033185;28;20185;-79
2022/01/21 07:15:08;;;;;;;6.33;2.40;;;4.20;99.90;;;;;;5049188;28;20202;-74
2022/01/21 07:17:34;;;;;;;4.20;2.73;;;4.20;99.90;;;;;;5048824;28;20193;-74
2022/01/21 07:20:08;;;;;;;8.80;2.57;;;4.10;99.90;;;;;;5035019;28;20181;-80
2022/01/21 07:22:34;;;;;;;4.03;1.90;;;4.20;99.90;;;;;;5028736;28;20198;-79
2022/01/21 07:25:02;;;;;;;5.30;2.10;;;4.10;99.90;;;;;;4995723;28;20713;-73
2022/01/21 07:27:28;;;;;;;2.93;1.70;;;4.30;99.90;;;;;;5028475;28;20178;-78
2022/01/21 07:29:53;;;;;;;4.83;1.93;;;4.30;99.90;;;;;;5012074;28;20720;-79
2022/01/21 07:32:19;;;;;;;4.83;1.87;;;4.30;99.90;;;;;;4996280;28;20174;-79
2022/01/21 07:34:45;;;;;;;4.47;2.00;;;4.20;99.90;;;;;;5011983;28;20260;-79
2022/01/21 07:37:11;;;;;;;6.03;2.30;;;4.10;99.90;;;;;;5028160;28;20181;-78
2022/01/21 07:39:40;;;;;;;6.33;1.97;;;4.20;99.90;;;;;;5014322;28;20581;-80
2022/01/21 07:42:07;;;;;;;3.33;1.87;;;4.50;99.90;;;;;;5013329;28;20623;-74
2022/01/21 07:44:35;;;;;;;7.47;2.60;;;4.20;99.90;;;;;;5027463;28;20224;-77
2022/01/21 07:47:01;;;;;;;2.80;1.77;;;4.30;99.90;;;;;;5015252;28;20222;-78
2022/01/21 07:49:27;;;;;;;2.30;1.67;;;4.30;99.90;;;;;;5012208;28;20217;-79
2022/01/21 07:51:53;;;;;;;8.17;2.10;;;4.20;99.90;;;;;;5012629;28;20199;-73
2022/01/21 07:54:19;;;;;;;6.28;3.03;;;4.20;99.90;;;;;;5021819;28;20373;-76
2022/01/21 07:56:44;;;;;;;5.30;2.57;;;4.30;99.90;;;;;;5022989;28;20185;-73
2022/01/21 07:59:12;;;;;;;8.40;2.53;;;4.60;99.90;;;;;;5016191;28;20235;-74
2022/01/21 08:01:39;;;;;;;3.53;2.70;;;4.40;99.90;;;;;;5024943;28;20546;-74
2022/01/21 08:04:08;;;;;;;10.73;3.00;;;4.60;99.90;;;;;;5037828;28;20591;-75
2022/01/21 08:06:34;;;;;;;5.93;2.30;;;4.50;99.90;;;;;;5035039;28;20181;-74
2022/01/21 08:09:00;;;;;;;5.93;2.73;;;4.60;99.90;;;;;;5041145;28;20298;-79
2022/01/21 08:11:26;;;;;;;6.03;2.70;;;4.50;99.90;;;;;;4994022;28;20270;-74
2022/01/21 08:13:52;;;;;;;8.10;2.53;;;4.50;99.90;;;;;;4997198;28;20190;-77
2022/01/21 08:16:19;;;;;;;6.43;2.73;;;4.40;99.90;;;;;;5032183;28;20587;-77
2022/01/21 08:18:46;;;;;;;8.20;2.10;;;4.50;99.90;;;;;;5028298;28;20661;-82
2022/01/21 08:21:18;;;;;;;6.03;2.60;;;4.60;99.90;;;;;;5051456;28;20200;-74
2022/01/21 08:23:49;;;;;;;7.87;2.60;;;4.70;99.90;;;;;;5039910;28;20178;-80
2022/01/21 08:26:19;;;;;;;4.87;2.83;;;4.60;99.90;;;;;;5033540;28;20570;-77
2022/01/21 08:28:47;;;;;;;8.13;2.73;;;4.70;99.90;;;;;;5031458;28;20602;-77
2022/01/21 08:31:13;;;;;;;3.77;2.30;;;4.80;99.90;;;;;;5030636;28;20181;-74
2022/01/21 08:33:39;;;;;;;5.80;2.20;;;4.80;99.90;;;;;;5003120;28;20201;-79
2022/01/21 08:36:07;;;;;;;10.03;5.80;;;4.80;99.90;;;;;;5011237;28;20188;-75
2022/01/21 08:38:34;;;;;;;7.23;3.80;;;4.70;99.90;;;;;;5042396;28;20176;-74
2022/01/21 08:41:00;;;;;;;11.20;2.73;;;4.80;99.90;;;;;;5039241;28;20262;-75
2022/01/21 08:43:27;;;;;;;7.03;2.67;;;4.70;99.90;;;;;;5029051;28;20178;-80
2022/01/21 08:45:53;;;;;;;6.17;2.27;;;4.70;99.90;;;;;;4999843;28;20213;-74
2022/01/21 08:48:21;;;;;;;7.90;2.77;;;4.70;99.90;;;;;;5029220;28;20632;-84
2022/01/21 08:50:47;;;;;;;8.10;2.90;;;4.90;99.90;;;;;;5043585;28;20170;-78
2022/01/21 08:53:36;;;;;;;5.67;2.60;;;4.90;99.90;;;;;;5040688;28;20188;-78
2022/01/21 08:56:01;;;;;;;4.13;2.27;;;4.90;99.90;;;;;;5037438;28;20239;-78
2022/01/21 08:58:27;;;;;;;7.47;3.10;;;5.10;99.90;;;;;;5034967;28;20224;-77
2022/01/21 09:00:53;;;;;;;8.57;2.83;;;5.10;99.90;;;;;;5034531;28;20184;-77
2022/01/21 09:03:19;;;;;;;3.60;2.40;;;5.00;99.90;;;;;;5051482;28;20556;-78
2022/01/21 09:05:49;;;;;;;5.63;3.03;;;5.00;99.90;;;;;;5033879;28;20284;-78
2022/01/21 09:08:16;;;;;;;4.43;2.10;;;5.00;99.90;;;;;;5022017;28;20185;-75
2022/01/21 09:10:42;;;;;;;4.63;2.50;;;4.90;99.90;;;;;;5021114;28;20182;-79
2022/01/21 09:13:28;;;;;;;5.10;2.50;;;5.00;99.90;;;;;;5030027;28;20193;-87
2022/01/21 09:15:58;;;;;;;9.83;4.47;;;4.80;99.90;;;;;;5032289;28;20672;-74
2022/01/21 09:18:25;;;;;;;6.97;2.50;;;5.10;99.90;;;;;;5015104;28;20583;-73
2022/01/21 09:20:51;;;;;;;5.53;2.40;;;4.90;99.90;;;;;;5014121;28;20268;-75
2022/01/21 09:23:20;;;;;;;5.83;2.40;;;4.90;99.90;;;;;;5036578;28;20162;-77
2022/01/21 09:25:46;;;;;;;6.67;2.27;;;4.90;99.90;;;;;;5017474;28;20179;-74
2022/01/21 09:28:12;;;;;;;7.80;2.57;;;5.10;99.90;;;;;;5017296;28;20173;-78
2022/01/21 09:30:38;;;;;;;9.10;2.63;;;5.30;99.90;;;;;;5033435;28;20528;-74
2022/01/21 09:33:04;;;;;;;8.80;3.43;;;5.30;99.90;;;;;;5051869;28;20169;-74
2022/01/21 09:35:29;;;;;;;10.13;2.73;;;5.10;99.90;;;;;;5017573;28;20272;-79
2022/01/21 09:37:55;;;;;;;6.20;3.67;;;5.00;99.90;;;;;;5017260;28;20296;-83
2022/01/21 09:40:30;;;;;;;4.20;2.60;;;4.90;99.90;;;;;;5046252;28;20393;-74
2022/01/21 09:42:57;;;;;;;6.53;3.07;;;5.10;99.90;;;;;;5013735;28;20205;-74
2022/01/21 09:45:24;;;;;;;7.00;2.60;;;5.20;99.90;;;;;;5030690;28;20199;-79
2022/01/21 09:47:54;;;;;;;8.50;2.63;;;5.00;99.90;;;;;;4997777;28;20201;-80
2022/01/21 09:50:21;;;;;;;8.55;3.28;;;5.20;99.90;;;;;;5030092;28;20480;-79
2022/01/21 09:52:53;;;;;;;11.10;3.67;;;5.20;99.90;;;;;;5029478;28;20571;-73
2022/01/21 09:55:22;;;;;;;7.87;2.43;;;5.30;99.90;;;;;;5032316;28;20201;-73
2022/01/21 09:57:50;;;;;;;8.00;3.78;;;5.30;99.90;;;;;;5032007;28;20516;-73
2022/01/21 10:00:17;;;;;;;8.43;2.97;;;5.30;99.90;;;;;;5037286;28;20243;-77
2022/01/21 10:02:45;;;;;;;11.67;3.73;;;5.60;99.90;;;;;;5042702;28;20297;-78
2022/01/21 10:05:11;;;;;;;10.03;3.27;;;5.70;99.90;;;;;;5031468;28;20181;-79
2022/01/21 10:07:41;;;;;;;7.47;3.03;;;5.80;99.90;;;;;;5014482;28;20182;-80
2022/01/21 10:10:08;;;;;;;6.13;2.60;;;5.60;99.90;;;;;;5013972;28;20178;-73
2022/01/21 10:12:36;;;;;;;8.03;2.47;;;5.60;99.90;;;;;;5013997;28;20629;-74
2022/01/21 10:15:07;;;;;;;7.03;2.63;;;5.70;99.90;;;;;;5023240;28;20568;-79
2022/01/21 10:17:34;;;;;;;5.85;2.70;;;5.80;99.90;;;;;;5032144;28;20431;-72
2022/01/21 10:20:18;;;;;;;4.90;2.50;;;5.70;99.90;;;;;;5032479;28;20181;-76
2022/01/21 10:23:03;;;;;;;8.40;3.00;;;5.80;99.90;;;;;;5034005;28;20551;-77
2022/01/21 10:25:30;;;;;;;7.40;2.70;;;5.60;99.90;;;;;;5014175;28;20303;-72
2022/01/21 10:28:19;;;;;;;8.70;3.07;;;5.70;99.90;;;;;;5046857;28;20235;-73
2022/01/21 10:30:49;;;;;;;9.97;2.50;;;5.80;99.90;;;;;;5032577;28;20174;-77
2022/01/21 10:33:21;;;;;;;8.10;3.70;;;5.70;99.90;;;;;;5026739;28;20412;-79
2022/01/21 10:35:49;;;;;;;6.07;2.67;;;5.70;99.90;;;;;;5029258;28;20592;-73
2022/01/21 10:38:28;;;;;;;6.47;2.60;;;5.60;99.90;;;;;;5017970;28;20251;-74
2022/01/21 10:41:05;;;;;;;7.87;2.50;;;5.60;99.90;;;;;;5005210;28;20593;-74
2022/01/21 10:43:32;;;;;;;7.13;2.50;;;5.50;99.90;;;;;;5036159;28;20177;-74
2022/01/21 10:45:59;;;;;;;6.17;2.57;;;5.30;99.90;;;;;;5015970;28;20239;-74
2022/01/21 10:48:28;;;;;;;6.93;3.47;;;5.10;99.90;;;;;;5028528;28;20182;-74
2022/01/21 10:51:24;;;;;;;9.53;2.60;;;5.20;99.90;;;;;;5028258;28;20216;-74
2022/01/21 10:53:50;;;;;;;5.93;2.40;;;5.50;99.90;;;;;;5042578;28;20650;-74
2022/01/21 10:56:17;;;;;;;6.33;2.37;;;5.20;99.90;;;;;;5044485;28;20189;-72
2022/01/21 10:58:51;;;;;;;6.40;2.50;;;5.30;99.90;;;;;;5028472;28;20276;-74
2022/01/21 11:01:18;;;;;;;6.03;2.33;;;5.50;99.90;;;;;;5015542;28;20288;-76
2022/01/21 11:04:11;;;;;;;4.40;2.30;;;5.60;99.90;;;;;;5032116;28;20204;-78
2022/01/21 11:06:57;;;;;;;5.27;2.27;;;5.70;99.90;;;;;;5028585;28;20181;-76
2022/01/21 11:09:25;;;;;;;7.97;2.67;;;5.90;99.90;;;;;;5012721;28;20331;-75
2022/01/21 11:12:10;;;;;;;5.70;2.43;;;5.90;99.90;;;;;;5008938;28;20189;-77
2022/01/21 11:14:38;;;;;;;6.27;2.13;;;5.80;99.90;;;;;;5018019;28;20180;-73
2022/01/21 11:17:16;;;;;;;4.57;2.17;;;5.70;99.90;;;;;;5001492;28;20181;-75
2022/01/21 11:20:06;;;;;;;5.87;2.40;;;5.80;99.90;;;;;;5027290;28;20672;-78
2022/01/21 11:22:52;;;;;;;6.77;2.40;;;5.70;99.90;;;;;;5036044;28;20224;-78
2022/01/21 11:25:39;;;;;;;4.27;1.73;;;5.90;99.90;;;;;;5044769;28;20323;-74
2022/01/21 11:28:05;;;;;;;6.33;2.17;;;5.80;99.90;;;;;;5029956;28;20269;-75
2022/01/21 11:30:31;;;;;;;7.83;1.90;;;5.70;99.90;;;;;;5016996;28;20169;-73
2022/01/21 11:32:57;;;;;;;4.47;2.20;;;5.80;99.90;;;;;;5036355;28;20231;-74
2022/01/21 11:35:23;;;;;;;8.33;2.37;;;5.40;99.90;;;;;;5027943;28;20272;-76
2022/01/21 11:37:50;;;;;;;6.37;2.67;;;5.50;99.90;;;;;;5003796;28;20193;-79
2022/01/21 11:40:18;;;;;;;5.40;1.90;;;5.10;99.90;;;;;;5023178;28;20227;-73
2022/01/21 11:42:47;;;;;;;15.13;5.23;;;5.40;99.90;;;;;;5028336;28;20208;-78
2022/01/21 11:45:30;;;;;;;6.80;2.47;;;5.70;99.90;;;;;;5012235;28;20178;-74
2022/01/21 11:48:50;;;;;;;6.80;2.07;;;5.90;99.90;;;;;;5017132;28;20204;-78
2022/01/21 11:50:52;;;;;;;6.63;1.80;;;5.80;99.90;;;;;;5039946;28;20205;-75
2022/01/21 11:54:01;;;;;;;3.40;1.73;;;5.90;99.90;;;;;;5030055;28;20640;-74
2022/01/21 11:56:34;;;;;;;3.13;1.60;;;5.70;99.90;;;;;;5049829;28;20578;-80
2022/01/21 11:59:04;;;;;;;6.93;1.90;;;5.80;99.90;;;;;;5070945;28;20204;-74
2022/01/21 12:01:48;;;;;;;6.97;1.80;;;5.90;99.90;;;;;;5047042;28;20206;-75
2022/01/21 12:04:38;;;;;;;6.30;1.60;;;5.80;99.90;;;;;;5032301;28;20216;-79
2022/01/21 12:07:04;;;;;;;3.57;2.03;;;5.80;99.90;;;;;;5023168;28;20186;-80
2022/01/21 12:10:04;;;;;;;5.73;2.50;;;5.80;99.90;;;;;;5034436;28;20213;-78
2022/01/21 12:12:51;;;;;;;3.53;1.70;;;5.80;99.90;;;;;;5028231;28;20194;-75
2022/01/21 12:15:31;;;;;;;6.25;2.13;;;5.80;99.90;;;;;;5023668;28;20424;-78
2022/01/21 12:18:58;;;;;;;4.97;1.83;;;5.80;99.90;;;;;;5033018;28;20262;-74
2022/01/21 12:21:34;;;;;;;11.73;1.97;;;5.80;99.90;;;;;;5016792;28;20613;-79
2022/01/21 12:24:00;;;;;;;11.57;3.67;;;5.80;99.90;;;;;;5021780;28;20173;-76
2022/01/21 12:26:27;;;;;;;5.57;2.00;;;5.80;99.90;;;;;;5022414;28;20181;-75
2022/01/21 12:28:59;;;;;;;7.63;2.33;;;5.90;99.90;;;;;;5026088;28;20247;-74
2022/01/21 12:31:25;;;;;;;5.23;1.53;;;5.90;99.90;;;;;;5047604;28;20178;-79
2022/01/21 12:34:06;;;;;;;9.30;4.43;;;6.10;99.90;;;;;;5030611;28;20224;-74
2022/01/21 12:36:36;;;;;;;6.37;2.97;;;6.00;99.90;;;;;;5031300;28;20297;-78
2022/01/21 12:39:24;;;;;;;6.70;1.90;;;5.70;99.90;;;;;;5024807;28;20186;-76
2022/01/21 12:41:50;;;;;;;9.10;1.90;;;5.90;99.90;;;;;;5029592;28;20197;-74
2022/01/21 12:44:30;;;;;;;4.80;1.57;;;5.80;99.90;;;;;;5026308;28;20181;-75
2022/01/21 12:46:56;;;;;;;6.30;1.47;;;5.70;99.90;;;;;;5032627;28;20192;-75
2022/01/21 12:49:32;;;;;;;6.33;1.30;;;5.60;99.90;;;;;;5024485;28;20178;-75
2022/01/21 12:57:32;;;;;;;4.20;1.73;;;5.80;99.90;;;;;;5026576;28;20854;-79
2022/01/21 13:00:08;;;;;;;6.37;1.70;;;5.90;99.90;;;;;;5008858;28;20178;-76
2022/01/21 13:02:36;;;;;;;3.00;1.60;;;5.90;99.90;;;;;;5025808;28;20219;-75
2022/01/21 13:05:25;;;;;;;4.78;1.63;;;5.90;99.90;;;;;;5030318;28;20472;-74
2022/01/21 13:08:13;;;;;;;6.83;1.63;;;5.90;99.90;;;;;;5028686;28;20207;-75
2022/01/21 13:10:39;;;;;;;5.27;1.20;;;5.90;99.90;;;;;;5034588;28;20228;-73
2022/01/21 13:15:49;;;;;;;3.90;1.23;;;6.00;99.90;;;;;;5017535;28;20296;-78
2022/01/21 13:18:16;;;;;;;3.87;1.40;;;5.90;99.90;;;;;;5037497;28;20213;-79
2022/01/21 13:20:46;;;;;;;5.50;1.60;;;5.90;99.90;;;;;;5010904;28;20649;-75
2022/01/21 13:23:28;;;;;;;10.63;2.30;;;5.90;99.90;;;;;;5030374;28;20202;-80
2022/01/21 13:26:12;;;;;;;5.97;1.40;;;6.00;99.90;;;;;;5039483;28;20177;-74
2022/01/21 13:29:11;;;;;;;4.07;1.40;;;6.10;99.90;;;;;;5034994;28;20576;-73
2022/01/21 13:31:46;;;;;;;2.30;0.93;;;6.10;99.90;;;;;;5030813;28;20252;-79
2022/01/21 13:34:18;;;;;;;5.43;1.53;;;6.20;99.90;;;;;;5038250;28;20184;-78
2022/01/21 13:36:47;;;;;;;5.07;1.30;;;6.20;99.90;;;;;;5015117;28;20198;-74
2022/01/21 13:39:35;;;;;;;4.80;1.37;;;5.90;99.90;;;;;;5041980;28;20525;-77
2022/01/21 13:42:10;;;;;;;5.23;1.33;;;5.90;99.90;;;;;;5009489;28;20222;-74
2022/01/21 13:44:55;;;;;;;2.73;1.03;;;5.80;99.90;;;;;;5030870;28;20528;-78
2022/01/21 13:47:24;;;;;;;2.37;1.10;;;5.80;99.90;;;;;;5029377;28;20181;-74
2022/01/21 13:49:50;;;;;;;3.80;1.07;;;5.90;99.90;;;;;;5029259;28;20173;-78
2022/01/21 13:52:16;;;;;;;2.03;1.13;;;6.10;99.90;;;;;;5029715;28;20182;-74
2022/01/21 13:54:48;;;;;;;5.07;1.63;;;5.80;99.90;;;;;;5045795;28;20196;-75
2022/01/21 13:57:15;;;;;;;6.73;1.30;;;5.70;99.90;;;;;;5033153;28;20286;-76
2022/01/21 13:59:46;;;;;;;4.67;1.40;;;5.80;99.90;;;;;;5050803;28;20704;-76
2022/01/21 14:02:17;;;;;;;2.58;1.08;;;5.80;99.90;;;;;;5036062;28;20432;-78